sensor_id;sensor_type;location;lat;lon;timestamp;pressure;altitude;pressure_sealevel;temperature;humidity
70240;BME280;57629;52.256;10.414;2022-07-06T00:00:00;101550.88;;;23.12;43.70
70240;BME280;57629;52.256;10.414;2022-07-06T00:01:00;101552.75;;;23.12;43.76
70240;BME280;57629;52.256;10.414;2022-07-06T00:02:01;101552.53;;;23.13;43.76
70240;BME280;57629;52.256;10.414;2022-07-06T00:03:04;101556.25;;;23.12;43.69
70240;BME280;57629;52.256;10.414;2022-07-06T00:04:05;101556.25;;;23.12;43.75
70240;BME280;57629;52.256;10.414;2022-07-06T00:05:06;101553.56;;;23.12;43.89
70240;BME280;57629;52.256;10.414;2022-07-06T00:06:07;101558.13;;;23.12;43.71
70240;BME280;57629;52.256;10.414;2022-07-06T00:07:08;101560.56;;;23.13;43.68
70240;BME280;57629;52.256;10.414;2022-07-06T00:08:09;101551.69;;;23.13;43.62
70240;BME280;57629;52.256;10.414;2022-07-06T00:09:09;101550.09;;;23.12;43.63
70240;BME280;57629;52.256;10.414;2022-07-06T00:10:10;101558.94;;;23.12;43.70
70240;BME280;57629;52.256;10.414;2022-07-06T00:11:11;101555.44;;;23.12;43.77
70240;BME280;57629;52.256;10.414;2022-07-06T00:12:11;101552.75;;;23.12;43.70
70240;BME280;57629;52.256;10.414;2022-07-06T00:13:12;101560.81;;;23.12;43.62
70240;BME280;57629;52.256;10.414;2022-07-06T00:14:13;101566.16;;;23.12;43.68
70240;BME280;57629;52.256;10.414;2022-07-06T00:15:13;101563.47;;;23.12;43.70
70240;BME280;57629;52.256;10.414;2022-07-06T00:16:14;101559.19;;;23.11;43.96
70240;BME280;57629;52.256;10.414;2022-07-06T00:17:14;101559.19;;;23.11;43.76
70240;BME280;57629;52.256;10.414;2022-07-06T00:18:16;101562.69;;;23.11;43.89
70240;BME280;57629;52.256;10.414;2022-07-06T00:19:17;101559.19;;;23.11;43.79
70240;BME280;57629;52.256;10.414;2022-07-06T00:20:18;101560.00;;;23.11;43.75
70240;BME280;57629;52.256;10.414;2022-07-06T00:21:18;101552.19;;;23.10;43.89
70240;BME280;57629;52.256;10.414;2022-07-06T00:22:19;101560.22;;;23.10;43.80
70240;BME280;57629;52.256;10.414;2022-07-06T00:23:20;101551.97;;;23.11;43.70
70240;BME280;57629;52.256;10.414;2022-07-06T00:24:20;101546.84;;;23.10;43.77
70240;BME280;57629;52.256;10.414;2022-07-06T00:25:21;101551.38;;;23.09;43.66
70240;BME280;57629;52.256;10.414;2022-07-06T00:26:21;101551.38;;;23.09;43.73
70240;BME280;57629;52.256;10.414;2022-07-06T00:27:22;101554.06;;;23.09;43.76
70240;BME280;57629;52.256;10.414;2022-07-06T00:28:23;101547.09;;;23.08;43.85
70240;BME280;57629;52.256;10.414;2022-07-06T00:29:23;101553.25;;;23.09;43.75
70240;BME280;57629;52.256;10.414;2022-07-06T00:30:24;101548.69;;;23.09;43.70
70240;BME280;57629;52.256;10.414;2022-07-06T00:31:25;101550.56;;;23.09;43.77
70240;BME280;57629;52.256;10.414;2022-07-06T00:32:25;101549.78;;;23.08;43.79
70240;BME280;57629;52.256;10.414;2022-07-06T00:33:27;101547.09;;;23.08;43.60
70240;BME280;57629;52.256;10.414;2022-07-06T00:34:28;101542.78;;;23.07;43.75
70240;BME280;57629;52.256;10.414;2022-07-06T00:35:28;101548.94;;;23.08;43.71
70240;BME280;57629;52.256;10.414;2022-07-06T00:36:29;101546.25;;;23.08;43.73
70240;BME280;57629;52.256;10.414;2022-07-06T00:37:30;101540.91;;;23.08;43.77
70240;BME280;57629;52.256;10.414;2022-07-06T00:38:30;101542.78;;;23.07;43.80
70240;BME280;57629;52.256;10.414;2022-07-06T00:39:31;101538.47;;;23.06;43.66
70240;BME280;57629;52.256;10.414;2022-07-06T00:40:32;101541.97;;;23.07;43.58
70240;BME280;57629;52.256;10.414;2022-07-06T00:41:32;101539.28;;;23.07;43.75
70240;BME280;57629;52.256;10.414;2022-07-06T00:42:39;101546.53;;;23.06;43.74
70240;BME280;57629;52.256;10.414;2022-07-06T00:43:49;101541.16;;;23.06;43.73
70240;BME280;57629;52.256;10.414;2022-07-06T00:44:50;101533.34;;;23.05;43.75
70240;BME280;57629;52.256;10.414;2022-07-06T00:45:51;101539.50;;;23.05;43.81
70240;BME280;57629;52.256;10.414;2022-07-06T00:46:51;101538.97;;;23.03;43.80
70240;BME280;57629;52.256;10.414;2022-07-06T00:47:52;101536.84;;;23.05;43.74
70240;BME280;57629;52.256;10.414;2022-07-06T00:48:54;101523.69;;;23.04;43.65
70240;BME280;57629;52.256;10.414;2022-07-06T00:49:55;101538.72;;;23.05;43.68
70240;BME280;57629;52.256;10.414;2022-07-06T00:50:55;101529.88;;;23.04;43.80
70240;BME280;57629;52.256;10.414;2022-07-06T00:51:56;101538.72;;;23.05;43.79
70240;BME280;57629;52.256;10.414;2022-07-06T00:52:59;101534.41;;;23.04;43.72
70240;BME280;57629;52.256;10.414;2022-07-06T00:54:03;101536.03;;;23.05;44.02
70240;BME280;57629;52.256;10.414;2022-07-06T00:55:04;101535.22;;;23.04;43.59
70240;BME280;57629;52.256;10.414;2022-07-06T00:56:05;101533.63;;;23.03;43.73
70240;BME280;57629;52.256;10.414;2022-07-06T00:57:06;101537.09;;;23.04;43.76
70240;BME280;57629;52.256;10.414;2022-07-06T00:58:07;101540.59;;;23.04;43.76
70240;BME280;57629;52.256;10.414;2022-07-06T00:59:08;101538.97;;;23.03;43.72
70240;BME280;57629;52.256;10.414;2022-07-06T01:00:11;101541.66;;;23.03;43.70
70240;BME280;57629;52.256;10.414;2022-07-06T01:01:12;101535.47;;;23.03;43.84
70240;BME280;57629;52.256;10.414;2022-07-06T01:02:13;101540.81;;;23.03;43.84
70240;BME280;57629;52.256;10.414;2022-07-06T01:03:13;101536.53;;;23.02;43.81
70240;BME280;57629;52.256;10.414;2022-07-06T01:04:16;101540.81;;;23.03;43.76
70240;BME280;57629;52.256;10.414;2022-07-06T01:05:17;101541.88;;;23.02;43.66
70240;BME280;57629;52.256;10.414;2022-07-06T01:06:18;101538.13;;;23.03;43.70
70240;BME280;57629;52.256;10.414;2022-07-06T01:07:18;101533.84;;;23.02;43.81
70240;BME280;57629;52.256;10.414;2022-07-06T01:08:19;101529.56;;;23.00;43.70
70240;BME280;57629;52.256;10.414;2022-07-06T01:09:20;101535.72;;;23.01;43.89
70240;BME280;57629;52.256;10.414;2022-07-06T01:10:21;101530.34;;;23.01;43.76
70240;BME280;57629;52.256;10.414;2022-07-06T01:11:22;101534.91;;;23.00;43.78
70240;BME280;57629;52.256;10.414;2022-07-06T01:12:23;101532.22;;;23.00;43.77
70240;BME280;57629;52.256;10.414;2022-07-06T01:13:25;101526.03;;;23.00;43.69
70240;BME280;57629;52.256;10.414;2022-07-06T01:14:27;101535.72;;;23.01;43.84
70240;BME280;57629;52.256;10.414;2022-07-06T01:15:27;101528.72;;;23.00;43.79
70240;BME280;57629;52.256;10.414;2022-07-06T01:16:28;101532.22;;;23.00;43.90
70240;BME280;57629;52.256;10.414;2022-07-06T01:17:29;101530.59;;;22.99;43.85
70240;BME280;57629;52.256;10.414;2022-07-06T01:18:31;101532.22;;;23.00;43.77
70240;BME280;57629;52.256;10.414;2022-07-06T01:19:33;101522.56;;;22.99;43.75
70240;BME280;57629;52.256;10.414;2022-07-06T01:20:35;101527.91;;;22.99;43.83
70240;BME280;57629;52.256;10.414;2022-07-06T01:21:37;101518.00;;;23.00;43.84
70240;BME280;57629;52.256;10.414;2022-07-06T01:22:38;101525.22;;;22.99;43.77
70240;BME280;57629;52.256;10.414;2022-07-06T01:23:40;101526.03;;;23.00;43.82
70240;BME280;57629;52.256;10.414;2022-07-06T01:24:41;101523.63;;;22.98;43.68
70240;BME280;57629;52.256;10.414;2022-07-06T01:25:42;101539.44;;;23.00;43.75
70240;BME280;57629;52.256;10.414;2022-07-06T01:26:43;101526.31;;;22.98;43.76
70240;BME280;57629;52.256;10.414;2022-07-06T01:27:44;101535.13;;;22.99;44.01
70240;BME280;57629;52.256;10.414;2022-07-06T01:28:45;101528.13;;;22.98;43.50
70240;BME280;57629;52.256;10.414;2022-07-06T01:29:46;101525.47;;;22.98;43.79
70240;BME280;57629;52.256;10.414;2022-07-06T01:30:46;101532.47;;;22.99;43.82
70240;BME280;57629;52.256;10.414;2022-07-06T01:31:48;101531.66;;;22.98;43.80
70240;BME280;57629;52.256;10.414;2022-07-06T01:32:50;101531.66;;;22.98;43.82
70240;BME280;57629;52.256;10.414;2022-07-06T01:33:54;101529.78;;;22.99;43.88
70240;BME280;57629;52.256;10.414;2022-07-06T01:34:55;101532.47;;;22.99;43.79
70240;BME280;57629;52.256;10.414;2022-07-06T01:35:57;101532.69;;;22.97;43.82
70240;BME280;57629;52.256;10.414;2022-07-06T01:36:58;101528.97;;;22.98;43.78
70240;BME280;57629;52.256;10.414;2022-07-06T01:37:58;101527.34;;;22.97;43.71
70240;BME280;57629;52.256;10.414;2022-07-06T01:38:59;101530.00;;;22.97;43.85
70240;BME280;57629;52.256;10.414;2022-07-06T01:40:00;101531.66;;;22.98;43.83
70240;BME280;57629;52.256;10.414;2022-07-06T01:41:05;101528.13;;;22.98;43.80
70240;BME280;57629;52.256;10.414;2022-07-06T01:42:06;101525.69;;;22.96;43.74
70240;BME280;57629;52.256;10.414;2022-07-06T01:43:06;101532.91;;;22.96;43.99
70240;BME280;57629;52.256;10.414;2022-07-06T01:44:07;101528.38;;;22.96;43.62
70240;BME280;57629;52.256;10.414;2022-07-06T01:45:09;101531.84;;;22.97;43.66
70240;BME280;57629;52.256;10.414;2022-07-06T01:46:10;101525.69;;;22.96;43.72
70240;BME280;57629;52.256;10.414;2022-07-06T01:47:11;101527.34;;;22.97;43.56
70240;BME280;57629;52.256;10.414;2022-07-06T01:48:12;101525.69;;;22.96;43.81
70240;BME280;57629;52.256;10.414;2022-07-06T01:49:12;101531.84;;;22.97;43.63
70240;BME280;57629;52.256;10.414;2022-07-06T01:50:13;101526.50;;;22.97;43.76
70240;BME280;57629;52.256;10.414;2022-07-06T01:51:15;101523.81;;;22.97;43.64
70240;BME280;57629;52.256;10.414;2022-07-06T01:52:16;101523.81;;;22.97;43.64
70240;BME280;57629;52.256;10.414;2022-07-06T01:53:16;101523.00;;;22.96;43.81
70240;BME280;57629;52.256;10.414;2022-07-06T01:54:17;101529.19;;;22.97;43.84
70240;BME280;57629;52.256;10.414;2022-07-06T01:55:18;101525.47;;;22.98;43.65
70240;BME280;57629;52.256;10.414;2022-07-06T01:56:19;101528.13;;;22.98;43.96
70240;BME280;57629;52.256;10.414;2022-07-06T01:57:19;101527.34;;;22.97;43.66
70240;BME280;57629;52.256;10.414;2022-07-06T01:58:20;101530.81;;;22.98;43.69
70240;BME280;57629;52.256;10.414;2022-07-06T01:59:21;101532.69;;;22.97;43.64
70240;BME280;57629;52.256;10.414;2022-07-06T02:00:21;101522.78;;;22.98;43.73
70240;BME280;57629;52.256;10.414;2022-07-06T02:01:22;101527.34;;;22.97;43.82
70240;BME280;57629;52.256;10.414;2022-07-06T02:02:23;101523.63;;;22.98;43.76
70240;BME280;57629;52.256;10.414;2022-07-06T02:03:23;101528.97;;;22.98;43.65
70240;BME280;57629;52.256;10.414;2022-07-06T02:04:24;101528.97;;;22.98;43.62
70240;BME280;57629;52.256;10.414;2022-07-06T02:05:25;101525.47;;;22.98;43.69
70240;BME280;57629;52.256;10.414;2022-07-06T02:06:27;101525.47;;;22.98;43.80
70240;BME280;57629;52.256;10.414;2022-07-06T02:07:27;101524.66;;;22.97;43.84
70240;BME280;57629;52.256;10.414;2022-07-06T02:08:28;101521.97;;;22.97;43.66
70240;BME280;57629;52.256;10.414;2022-07-06T02:09:29;101525.47;;;22.98;43.76
70240;BME280;57629;52.256;10.414;2022-07-06T02:10:29;101526.31;;;22.98;43.61
70240;BME280;57629;52.256;10.414;2022-07-06T02:11:30;101528.97;;;22.98;43.64
70240;BME280;57629;52.256;10.414;2022-07-06T02:12:31;101528.13;;;22.98;43.86
70240;BME280;57629;52.256;10.414;2022-07-06T02:13:31;101525.47;;;22.98;43.58
70240;BME280;57629;52.256;10.414;2022-07-06T02:14:32;101534.34;;;22.98;43.80
70240;BME280;57629;52.256;10.414;2022-07-06T02:15:33;101526.31;;;22.98;43.65
70240;BME280;57629;52.256;10.414;2022-07-06T02:16:33;101526.31;;;22.98;43.71
70240;BME280;57629;52.256;10.414;2022-07-06T02:17:34;101527.34;;;22.97;43.61
70240;BME280;57629;52.256;10.414;2022-07-06T02:18:35;101530.00;;;22.97;43.70
70240;BME280;57629;52.256;10.414;2022-07-06T02:19:35;101527.34;;;22.97;43.68
70240;BME280;57629;52.256;10.414;2022-07-06T02:20:36;101526.50;;;22.97;43.62
70240;BME280;57629;52.256;10.414;2022-07-06T02:21:39;101530.00;;;22.97;43.65
70240;BME280;57629;52.256;10.414;2022-07-06T02:22:39;101537.22;;;22.97;43.66
70240;BME280;57629;52.256;10.414;2022-07-06T02:23:40;101534.53;;;22.97;43.65
70240;BME280;57629;52.256;10.414;2022-07-06T02:24:40;101539.69;;;22.98;43.64
70240;BME280;57629;52.256;10.414;2022-07-06T02:25:41;101534.53;;;22.97;43.57
70240;BME280;57629;52.256;10.414;2022-07-06T02:26:42;101539.69;;;22.98;43.64
70240;BME280;57629;52.256;10.414;2022-07-06T02:27:42;101527.34;;;22.97;43.57
70240;BME280;57629;52.256;10.414;2022-07-06T02:28:43;101535.38;;;22.97;43.43
70240;BME280;57629;52.256;10.414;2022-07-06T02:29:44;101538.03;;;22.97;43.55
70240;BME280;57629;52.256;10.414;2022-07-06T02:30:44;101536.19;;;22.98;43.56
70240;BME280;57629;52.256;10.414;2022-07-06T02:31:45;101544.22;;;22.98;43.57
70240;BME280;57629;52.256;10.414;2022-07-06T02:32:46;101537.22;;;22.97;43.72
70240;BME280;57629;52.256;10.414;2022-07-06T02:33:47;101534.53;;;22.97;43.61
70240;BME280;57629;52.256;10.414;2022-07-06T02:34:47;101531.84;;;22.97;43.71
70240;BME280;57629;52.256;10.414;2022-07-06T02:35:48;101539.09;;;22.96;43.48
70240;BME280;57629;52.256;10.414;2022-07-06T02:36:50;101536.41;;;22.96;43.58
70240;BME280;57629;52.256;10.414;2022-07-06T02:37:50;101531.06;;;22.96;43.62
70240;BME280;57629;52.256;10.414;2022-07-06T02:38:51;101538.28;;;22.96;43.59
70240;BME280;57629;52.256;10.414;2022-07-06T02:39:52;101526.72;;;22.95;43.35
70240;BME280;57629;52.256;10.414;2022-07-06T02:40:52;101531.84;;;22.97;43.44
70240;BME280;57629;52.256;10.414;2022-07-06T02:41:53;101536.41;;;22.96;43.60
70240;BME280;57629;52.256;10.414;2022-07-06T02:42:53;101540.13;;;22.95;43.66
70240;BME280;57629;52.256;10.414;2022-07-06T02:43:54;101529.41;;;22.95;43.51
70240;BME280;57629;52.256;10.414;2022-07-06T02:44:55;101533.97;;;22.95;43.56
70240;BME280;57629;52.256;10.414;2022-07-06T02:45:55;101532.34;;;22.94;43.58
70240;BME280;57629;52.256;10.414;2022-07-06T02:46:56;101538.50;;;22.94;43.62
70240;BME280;57629;52.256;10.414;2022-07-06T02:47:57;101533.16;;;22.94;43.44
70240;BME280;57629;52.256;10.414;2022-07-06T02:48:57;101537.69;;;22.94;43.60
70240;BME280;57629;52.256;10.414;2022-07-06T02:49:58;101546.53;;;22.94;43.58
70240;BME280;57629;52.256;10.414;2022-07-06T02:50:59;101544.94;;;22.93;43.45
70240;BME280;57629;52.256;10.414;2022-07-06T02:52:01;101543.88;;;22.94;43.58
70240;BME280;57629;52.256;10.414;2022-07-06T02:53:01;101544.09;;;22.93;43.42
70240;BME280;57629;52.256;10.414;2022-07-06T02:54:02;101542.25;;;22.93;43.54
70240;BME280;57629;52.256;10.414;2022-07-06T02:55:04;101546.78;;;22.93;43.55
70240;BME280;57629;52.256;10.414;2022-07-06T02:56:05;101545.97;;;22.92;43.64
70240;BME280;57629;52.256;10.414;2022-07-06T02:57:05;101539.81;;;22.92;43.47
70240;BME280;57629;52.256;10.414;2022-07-06T02:58:06;101533.63;;;22.91;43.51
70240;BME280;57629;52.256;10.414;2022-07-06T02:59:07;101531.78;;;22.92;43.59
70240;BME280;57629;52.256;10.414;2022-07-06T03:00:08;101544.34;;;22.91;43.50
70240;BME280;57629;52.256;10.414;2022-07-06T03:01:09;101539.81;;;22.92;43.46
70240;BME280;57629;52.256;10.414;2022-07-06T03:02:10;101532.00;;;22.90;43.53
70240;BME280;57629;52.256;10.414;2022-07-06T03:03:10;101544.34;;;22.91;43.34
70240;BME280;57629;52.256;10.414;2022-07-06T03:04:11;101540.88;;;22.91;43.59
70240;BME280;57629;52.256;10.414;2022-07-06T03:05:12;101543.56;;;22.91;43.13
70240;BME280;57629;52.256;10.414;2022-07-06T03:06:12;101548.91;;;22.91;43.47
70240;BME280;57629;52.256;10.414;2022-07-06T03:07:14;101546.22;;;22.91;43.34
70240;BME280;57629;52.256;10.414;2022-07-06T03:08:15;101549.94;;;22.90;43.39
70240;BME280;57629;52.256;10.414;2022-07-06T03:09:16;101548.91;;;22.91;43.36
70240;BME280;57629;52.256;10.414;2022-07-06T03:10:16;101544.59;;;22.90;43.54
70240;BME280;57629;52.256;10.414;2022-07-06T03:11:17;101537.34;;;22.90;43.31
70240;BME280;57629;52.256;10.414;2022-07-06T03:12:18;101541.09;;;22.89;43.34
70240;BME280;57629;52.256;10.414;2022-07-06T03:13:18;101542.72;;;22.90;43.45
70240;BME280;57629;52.256;10.414;2022-07-06T03:14:19;101544.59;;;22.90;43.28
70240;BME280;57629;52.256;10.414;2022-07-06T03:15:19;101549.13;;;22.89;43.14
70240;BME280;57629;52.256;10.414;2022-07-06T03:16:20;101543.78;;;22.89;43.42
70240;BME280;57629;52.256;10.414;2022-07-06T03:17:21;101548.31;;;22.89;43.53
70240;BME280;57629;52.256;10.414;2022-07-06T03:18:21;101545.66;;;22.89;43.35
70240;BME280;57629;52.256;10.414;2022-07-06T03:19:22;101547.53;;;22.88;43.39
70240;BME280;57629;52.256;10.414;2022-07-06T03:20:23;101546.47;;;22.89;43.41
70240;BME280;57629;52.256;10.414;2022-07-06T03:21:23;101550.19;;;22.88;43.34
70240;BME280;57629;52.256;10.414;2022-07-06T03:22:26;101547.53;;;22.88;43.27
70240;BME280;57629;52.256;10.414;2022-07-06T03:23:26;101544.00;;;22.88;43.38
70240;BME280;57629;52.256;10.414;2022-07-06T03:24:27;101550.19;;;22.88;43.33
70240;BME280;57629;52.256;10.414;2022-07-06T03:25:28;101546.47;;;22.89;43.40
70240;BME280;57629;52.256;10.414;2022-07-06T03:26:28;101540.53;;;22.87;43.46
70240;BME280;57629;52.256;10.414;2022-07-06T03:27:29;101548.56;;;22.87;43.43
70240;BME280;57629;52.256;10.414;2022-07-06T03:28:30;101545.88;;;22.87;43.12
70240;BME280;57629;52.256;10.414;2022-07-06T03:29:31;101543.19;;;22.87;43.44
70240;BME280;57629;52.256;10.414;2022-07-06T03:30:31;101548.56;;;22.87;43.46
70240;BME280;57629;52.256;10.414;2022-07-06T03:31:32;101553.91;;;22.87;43.54
70240;BME280;57629;52.256;10.414;2022-07-06T03:32:32;101552.31;;;22.86;43.39
70240;BME280;57629;52.256;10.414;2022-07-06T03:33:33;101553.09;;;22.87;43.34
70240;BME280;57629;52.256;10.414;2022-07-06T03:34:34;101553.91;;;22.87;43.20
70240;BME280;57629;52.256;10.414;2022-07-06T03:35:34;101547.75;;;22.87;43.32
70240;BME280;57629;52.256;10.414;2022-07-06T03:36:35;101540.53;;;22.87;43.28
70240;BME280;57629;52.256;10.414;2022-07-06T03:37:37;101543.47;;;22.86;43.48
70240;BME280;57629;52.256;10.414;2022-07-06T03:38:38;101544.28;;;22.86;43.28
70240;BME280;57629;52.256;10.414;2022-07-06T03:39:38;101541.31;;;22.88;43.69
70240;BME280;57629;52.256;10.414;2022-07-06T03:40:39;101540.78;;;22.86;43.15
70240;BME280;57629;52.256;10.414;2022-07-06T03:41:39;101538.09;;;22.86;43.35
70240;BME280;57629;52.256;10.414;2022-07-06T03:42:40;101538.91;;;22.86;43.32
70240;BME280;57629;52.256;10.414;2022-07-06T03:43:41;101546.13;;;22.86;43.40
70240;BME280;57629;52.256;10.414;2022-07-06T03:44:41;101537.28;;;22.85;43.33
70240;BME280;57629;52.256;10.414;2022-07-06T03:45:42;101539.13;;;22.85;43.48
70240;BME280;57629;52.256;10.414;2022-07-06T03:46:43;101539.13;;;22.85;43.16
70240;BME280;57629;52.256;10.414;2022-07-06T03:47:43;101531.91;;;22.85;43.44
70240;BME280;57629;52.256;10.414;2022-07-06T03:48:44;101541.00;;;22.84;43.36
70240;BME280;57629;52.256;10.414;2022-07-06T03:49:44;101535.66;;;22.84;43.38
70240;BME280;57629;52.256;10.414;2022-07-06T03:50:45;101539.13;;;22.85;43.47
70240;BME280;57629;52.256;10.414;2022-07-06T03:51:46;101541.00;;;22.84;43.33
70240;BME280;57629;52.256;10.414;2022-07-06T03:52:48;101537.28;;;22.85;43.35
70240;BME280;57629;52.256;10.414;2022-07-06T03:53:48;101541.81;;;22.85;43.44
70240;BME280;57629;52.256;10.414;2022-07-06T03:54:49;101541.00;;;22.84;43.50
70240;BME280;57629;52.256;10.414;2022-07-06T03:55:49;101545.31;;;22.85;43.35
70240;BME280;57629;52.256;10.414;2022-07-06T03:56:50;101545.31;;;22.85;43.50
70240;BME280;57629;52.256;10.414;2022-07-06T03:57:51;101542.88;;;22.84;43.27
70240;BME280;57629;52.256;10.414;2022-07-06T03:58:51;101541.81;;;22.85;43.54
70240;BME280;57629;52.256;10.414;2022-07-06T03:59:52;101546.38;;;22.84;43.28
70240;BME280;57629;52.256;10.414;2022-07-06T04:00:52;101548.25;;;22.84;43.42
70240;BME280;57629;52.256;10.414;2022-07-06T04:01:53;101546.38;;;22.84;43.51
70240;BME280;57629;52.256;10.414;2022-07-06T04:02:54;101553.34;;;22.85;43.19
70240;BME280;57629;52.256;10.414;2022-07-06T04:03:54;101551.72;;;22.84;43.43
70240;BME280;57629;52.256;10.414;2022-07-06T04:04:55;101559.75;;;22.84;43.50
70240;BME280;57629;52.256;10.414;2022-07-06T04:05:56;101557.09;;;22.84;43.37
70240;BME280;57629;52.256;10.414;2022-07-06T04:06:56;101555.22;;;22.85;43.40
70240;BME280;57629;52.256;10.414;2022-07-06T04:07:58;101561.38;;;22.85;43.51
70240;BME280;57629;52.256;10.414;2022-07-06T04:08:59;101553.59;;;22.84;43.39
70240;BME280;57629;52.256;10.414;2022-07-06T04:09:59;101565.91;;;22.85;43.44
70240;BME280;57629;52.256;10.414;2022-07-06T04:11:00;101560.56;;;22.85;43.29
70240;BME280;57629;52.256;10.414;2022-07-06T04:12:01;101568.59;;;22.85;43.37
70240;BME280;57629;52.256;10.414;2022-07-06T04:13:01;101569.41;;;22.85;43.41
70240;BME280;57629;52.256;10.414;2022-07-06T04:14:02;101570.97;;;22.81;43.42
70240;BME280;57629;52.256;10.414;2022-07-06T04:15:03;101573.28;;;22.77;43.62
70240;BME280;57629;52.256;10.414;2022-07-06T04:16:04;101564.34;;;22.72;43.65
70240;BME280;57629;52.256;10.414;2022-07-06T04:17:05;101571.00;;;22.69;43.60
70240;BME280;57629;52.256;10.414;2022-07-06T04:18:06;101567.50;;;22.69;43.61
70240;BME280;57629;52.256;10.414;2022-07-06T04:19:06;101569.13;;;22.70;43.76
70240;BME280;57629;52.256;10.414;2022-07-06T04:20:08;101570.28;;;22.74;43.70
70240;BME280;57629;52.256;10.414;2022-07-06T04:21:09;101575.38;;;22.75;43.51
70240;BME280;57629;52.256;10.414;2022-07-06T04:22:09;101575.97;;;22.77;43.45
70240;BME280;57629;52.256;10.414;2022-07-06T04:23:11;101572.25;;;22.78;43.44
70240;BME280;57629;52.256;10.414;2022-07-06T04:24:12;101569.56;;;22.78;43.47
70240;BME280;57629;52.256;10.414;2022-07-06T04:25:13;101566.63;;;22.80;43.38
70240;BME280;57629;52.256;10.414;2022-07-06T04:26:13;101572.00;;;22.80;43.57
70240;BME280;57629;52.256;10.414;2022-07-06T04:27:14;101572.00;;;22.80;43.41
70240;BME280;57629;52.256;10.414;2022-07-06T04:28:15;101572.00;;;22.80;43.51
70240;BME280;57629;52.256;10.414;2022-07-06T04:29:15;101575.47;;;22.80;43.47
70240;BME280;57629;52.256;10.414;2022-07-06T04:30:16;101576.31;;;22.81;43.49
70240;BME280;57629;52.256;10.414;2022-07-06T04:31:17;101577.13;;;22.82;43.49
70240;BME280;57629;52.256;10.414;2022-07-06T04:32:17;101571.75;;;22.82;43.49
70240;BME280;57629;52.256;10.414;2022-07-06T04:33:18;101569.91;;;22.82;43.37
70240;BME280;57629;52.256;10.414;2022-07-06T04:34:18;101574.22;;;22.83;43.52
70240;BME280;57629;52.256;10.414;2022-07-06T04:35:19;101574.22;;;22.83;43.46
70240;BME280;57629;52.256;10.414;2022-07-06T04:36:20;101577.69;;;22.84;43.78
70240;BME280;57629;52.256;10.414;2022-07-06T04:37:20;101576.63;;;22.85;43.58
70240;BME280;57629;52.256;10.414;2022-07-06T04:38:22;101568.59;;;22.85;43.36
70240;BME280;57629;52.256;10.414;2022-07-06T04:39:23;101568.59;;;22.85;43.48
70240;BME280;57629;52.256;10.414;2022-07-06T04:40:23;101567.78;;;22.84;43.42
70240;BME280;57629;52.256;10.414;2022-07-06T04:41:24;101570.47;;;22.84;43.52
70240;BME280;57629;52.256;10.414;2022-07-06T04:42:25;101565.91;;;22.85;43.52
70240;BME280;57629;52.256;10.414;2022-07-06T04:43:25;101565.13;;;22.84;43.54
70240;BME280;57629;52.256;10.414;2022-07-06T04:44:26;101573.97;;;22.85;43.78
70240;BME280;57629;52.256;10.414;2022-07-06T04:45:27;101563.25;;;22.85;43.61
70240;BME280;57629;52.256;10.414;2022-07-06T04:46:27;101564.03;;;22.85;43.45
70240;BME280;57629;52.256;10.414;2022-07-06T04:47:28;101565.13;;;22.84;43.61
70240;BME280;57629;52.256;10.414;2022-07-06T04:48:29;101569.41;;;22.85;43.52
70240;BME280;57629;52.256;10.414;2022-07-06T04:49:29;101565.91;;;22.85;43.59
70240;BME280;57629;52.256;10.414;2022-07-06T04:50:30;101565.13;;;22.84;43.59
70240;BME280;57629;52.256;10.414;2022-07-06T04:51:30;101565.91;;;22.85;43.69
70240;BME280;57629;52.256;10.414;2022-07-06T04:52:31;101561.63;;;22.84;43.57
70240;BME280;57629;52.256;10.414;2022-07-06T04:53:33;101565.91;;;22.85;43.84
70240;BME280;57629;52.256;10.414;2022-07-06T04:54:34;101567.78;;;22.84;43.62
70240;BME280;57629;52.256;10.414;2022-07-06T04:55:34;101565.91;;;22.85;43.76
70240;BME280;57629;52.256;10.414;2022-07-06T04:56:35;101568.59;;;22.85;43.52
70240;BME280;57629;52.256;10.414;2022-07-06T04:57:36;101563.25;;;22.85;43.55
70240;BME280;57629;52.256;10.414;2022-07-06T04:58:36;101567.78;;;22.84;43.71
70240;BME280;57629;52.256;10.414;2022-07-06T04:59:37;101570.47;;;22.84;43.76
70240;BME280;57629;52.256;10.414;2022-07-06T05:00:37;101565.13;;;22.84;43.73
70240;BME280;57629;52.256;10.414;2022-07-06T05:01:38;101564.31;;;22.84;43.69
70240;BME280;57629;52.256;10.414;2022-07-06T05:02:39;101569.66;;;22.84;43.71
70240;BME280;57629;52.256;10.414;2022-07-06T05:03:39;101570.47;;;22.84;43.66
70240;BME280;57629;52.256;10.414;2022-07-06T05:04:40;101573.16;;;22.84;43.79
70240;BME280;57629;52.256;10.414;2022-07-06T05:05:40;101560.81;;;22.83;43.71
70240;BME280;57629;52.256;10.414;2022-07-06T05:06:41;101568.84;;;22.83;43.80
70240;BME280;57629;52.256;10.414;2022-07-06T05:07:42;101565.34;;;22.83;43.82
70240;BME280;57629;52.256;10.414;2022-07-06T05:08:44;101579.56;;;22.83;43.66
70240;BME280;57629;52.256;10.414;2022-07-06T05:09:44;101571.53;;;22.83;43.64
70240;BME280;57629;52.256;10.414;2022-07-06T05:10:45;101569.91;;;22.82;43.65
70240;BME280;57629;52.256;10.414;2022-07-06T05:11:45;101566.41;;;22.82;43.70
70240;BME280;57629;52.256;10.414;2022-07-06T05:12:46;101571.75;;;22.82;43.81
70240;BME280;57629;52.256;10.414;2022-07-06T05:13:47;101577.94;;;22.82;43.65